This is the latest recevied weather packets stored in our database for station/object WG5EEK. If no packets are shown the sender has not sent any weather packets the latest 10 day(s).
| Time | Temp. | Humidity | Pressure | Rain* | Wind** | Luminosity | Snow |
|---|---|---|---|---|---|---|---|
| 1778060163 | 13.33° C | 77% | 987.3 hPa | - | - | - | - |
| 1778059803 | 13.33° C | 77% | 986.9 hPa | - | - | - | - |
| 1778059107 | 13.33° C | 77% | 987 hPa | - | - | - | - |
| 1778055481 | 13.33° C | 80% | 987 hPa | - | - | - | - |
| 1778054402 | 13.33° C | 81% | 987 hPa | - | - | - | - |
| 1778051522 | 13.33° C | 82% | 987 hPa | - | - | - | - |
| 1778051161 | 13.33° C | 82% | 987.1 hPa | - | - | - | - |
| 1778050442 | 12.78° C | 82% | 987 hPa | - | - | - | - |
| 1778043626 | 13.89° C | 83% | 986 hPa | - | - | - | - |
| 1778041827 | 13.89° C | 81% | 985.4 hPa | - | - | - | - |
| 1778037122 | 14.44° C | 82% | 984.3 hPa | - | - | - | - |
| 1778036042 | 13.89° C | 82% | 983.8 hPa | - | - | - | - |
| 1778033522 | 14.44° C | 82% | 982.9 hPa | - | - | - | - |
| 1778033188 | 14.44° C | 82% | 982.7 hPa | - | - | - | - |
| 1778030282 | 15° C | 80% | 981.3 hPa | - | - | - | - |
| 1778029203 | 15° C | 80% | 981 hPa | - | - | - | - |
| 1778028842 | 15° C | 80% | 980.9 hPa | - | - | - | - |
| 1778027041 | 15.56° C | 80% | 980.3 hPa | - | - | - | - |
| 1778025962 | 15.56° C | 80% | 979.7 hPa | - | - | - | - |
| 1778025602 | 15.56° C | 79% | 979.3 hPa | - | - | - | - |
| 1778023082 | 16.11° C | 80% | 978.1 hPa | - | - | - | - |
| 1778021643 | 17.22° C | 81% | 976.6 hPa | - | - | - | - |
| 1778020922 | 17.22° C | 81% | 975.8 hPa | - | - | - | - |
| 1778020201 | 17.78° C | 80% | 975.5 hPa | - | - | - | - |
| 1778014803 | 18.89° C | 83% | 972.5 hPa | - | - | - | - |
* Rain since midnight (hover to see other rain measurements)
** Current wind speed in m/s (hover to see current wind gust speed)